Data for 01/08/2017

Time Sea-Level Adjusted Pressure Absolute Pressure Temperature Relative Humidity Dew Point   
(mb) (inHg) (mb) (inHg) (C) (F) (%) (C) (F)
00:05 1015 29.97 844 24.92 -8.8 16.1 66 -14 6.8
00:10 1015 29.97 844 24.92 -8.7 16.3 69 -13.4 7.9
00:15 1015 29.97 844 24.92 -8.6 16.4 71 -13.1 8.5
00:20 1015 29.97 844 24.92 -8.4 16.9 70 -12.9 8.8
00:25 1015 29.97 844 24.92 -8.3 17.1 71 -12.7 9.1
00:30 1015 29.97 844 24.92 -8.2 17.3 72 -12.4 9.7
00:35 1015 29.97 844 24.92 -8.1 17.4 72 -12.3 9.9
00:40 1015 29.97 844 24.92 -8 17.5 72 -12.3 9.9
00:45 1015 29.97 845 24.95 -8.2 17.3 72 -12.4 9.7
00:50 1015 29.97 844 24.92 -8.2 17.3 72 -12.4 9.8
00:55 1015 29.97 845 24.95 -8.2 17.3 73 -12.3 9.9
01:00 1015 29.97 845 24.95 -8.1 17.3 74 -12 10.5
01:05 1015 29.97 845 24.95 -8.1 17.4 73 -12.1 10.3
01:10 1015 29.97 845 24.95 -8.1 17.5 75 -11.8 10.8
01:15 1015 29.97 844 24.92 -8 17.6 74 -11.9 10.5
01:20 1015 29.97 845 24.95 -8.1 17.4 72 -12.2 10
01:25 1015 29.97 845 24.95 -8.2 17.2 71 -12.6 9.3
01:30 1015 29.97 845 24.95 -8.4 16.9 72 -12.5 9.4
01:35 1016 30 845 24.95 -8.3 17 71 -12.6 9.2
01:40 1016 30 845 24.95 -8.3 17 69 -13 8.6
01:45 1015 29.97 845 24.95 -8.4 16.8 70 -13 8.6
01:50 1015 29.97 845 24.95 -8.6 16.6 68 -13.4 7.9
01:55 1016 30 845 24.95 -8.5 16.6 68 -13.3 8
02:00 1016 30 845 24.95 -8.4 16.9 68 -13.4 8
02:05 1016 30 845 24.95 -8.2 17.3 67 -13.2 8.2
02:10 1016 30 845 24.95 -8.2 17.2 67 -13.3 8.1
02:15 1016 30 845 24.95 -8.5 16.8 70 -13 8.6
02:20 1016 30 845 24.95 -8.6 16.5 70 -13.1 8.5
02:25 1016 30 845 24.95 -8.6 16.6 69 -13.3 8.1
02:30 1016 30 845 24.95 -8.5 16.8 70 -13.1 8.5
02:35 1016 30 845 24.95 -8.4 16.9 68 -13.2 8.2
02:40 1016 30 845 24.95 -8.3 17 67 -13.4 7.9
02:45 1016 30 845 24.95 -8.3 17.1 67 -13.5 7.8
02:50 1016 30 845 24.95 -8.2 17.3 68 -13.1 8.3
02:55 1016 30 845 24.95 -8 17.6 67 -13 8.5
03:00 1016 30 845 24.95 -7.9 17.9 67 -13 8.6
03:05 1016 30 845 24.95 -7.8 17.9 67 -13 8.6
03:10 1016 30 845 24.95 -7.8 18 66 -13 8.6
03:15 1016 30 845 24.95 -7.8 17.9 65 -13.3 8
03:20 1016 30 845 24.95 -7.9 17.8 66 -13.1 8.3
03:25 1016 30 845 24.95 -7.9 17.8 67 -13 8.5
03:30 1016 30 845 24.95 -7.8 17.9 68 -12.8 9
03:35 1016 30 846 24.98 -7.8 18.1 68 -12.7 9.1
03:40 1016 30 846 24.98 -7.7 18.1 69 -12.4 9.6
03:45 1016 30 846 24.98 -7.7 18.2 69 -12.4 9.6
03:50 1017 30.03 846 24.98 -7.6 18.4 68 -12.4 9.7
03:55 1016 30 846 24.98 -7.5 18.6 70 -12.1 10.3
04:00 1016 30 846 24.98 -7.4 18.6 70 -12 10.4
04:05 1017 30.03 846 24.98 -7.5 18.6 71 -11.9 10.5
04:10 1017 30.03 846 24.98 -7.4 18.6 71 -11.8 10.8
04:15 1017 30.03 846 24.98 -7.3 18.8 71 -11.7 10.9
04:20 1017 30.03 846 24.98 -7.4 18.8 72 -11.6 11.2
04:25 1017 30.03 846 24.98 -7.3 18.9 72 -11.4 11.4
04:30 1017 30.03 846 24.98 -7.2 19.1 72 -11.3 11.6
04:35 1017 30.03 846 24.98 -7.2 19 73 -11.3 11.6
04:40 1017 30.03 846 24.98 -7.2 19.1 74 -11 12.2
04:45 1017 30.03 846 24.98 -7.1 19.2 73 -11.1 12
04:50 1016 30 846 24.98 -7.2 19.1 73 -11.2 11.9
04:55 1016 30 846 24.98 -7.2 19.1 73 -11.2 11.9
05:00 1016 30 846 24.98 -7.1 19.3 74 -11 12.2
05:05 1017 30.03 846 24.98 -7 19.4 74 -11 12.3
05:10 1017 30.03 846 24.98 -6.9 19.6 74 -10.8 12.6
05:15 1017 30.03 846 24.98 -6.7 19.9 74 -10.7 12.7
05:20 1017 30.03 846 24.98 -6.6 20 76 -10.2 13.6
05:25 1017 30.03 846 24.98 -6.3 20.7 76 -9.8 14.4
05:30 1017 30.03 846 24.98 -6.2 20.8 73 -10.4 13.3
05:35 1017 30.03 846 24.98 -6.4 20.6 77 -9.7 14.5
05:40 1017 30.03 846 24.98 -6.2 20.9 80 -9.1 15.7
05:45 1017 30.03 846 24.98 -6.1 21 78 -9.3 15.2
05:50 1017 30.03 846 24.98 -6.3 20.6 77 -9.8 14.4
05:55 1017 30.03 846 24.98 -6.4 20.4 79 -9.6 14.8
06:00 1017 30.03 846 24.98 -6.5 20.2 79 -9.6 14.7
06:05 1017 30.03 846 24.98 -6.6 20.1 80 -9.6 14.8
06:10 1017 30.03 846 24.98 -6.5 20.4 81 -9.2 15.4
06:15 1017 30.03 846 24.98 -6.2 20.8 82 -8.8 16.2
06:20 1017 30.03 846 24.98 -6 21.1 80 -9 15.8
06:25 1017 30.03 846 24.98 -5.9 21.3 79 -9 15.8
06:30 1017 30.03 846 24.98 -5.9 21.5 79 -8.9 16
06:35 1017 30.03 846 24.98 -5.9 21.4 76 -9.6 14.8
06:40 1017 30.03 846 24.98 -6.2 20.8 76 -9.8 14.3
06:45 1017 30.03 846 24.98 -6.3 20.7 76 -9.8 14.3
06:50 1017 30.03 846 24.98 -6.1 20.9 78 -9.5 15
06:55 1017 30.03 846 24.98 -6.1 21.1 78 -9.3 15.2
07:00 1017 30.03 846 24.98 -5.8 21.5 77 -9.2 15.4
07:05 1017 30.03 846 24.98 -5.5 22.1 75 -9.2 15.5
07:10 1017 30.03 846 24.98 -5.4 22.2 75 -9.2 15.5
07:15 1017 30.03 846 24.98 -5.5 22.2 75 -9.3 15.3
07:20 1017 30.03 846 24.98 -5.4 22.2 76 -9.1 15.6
07:25 1017 30.03 846 24.98 -5.3 22.5 76 -8.8 16.2
07:30 1017 30.03 846 24.98 -4.7 23.6 75 -8.5 16.6
07:35 1017 30.03 846 24.98 -4.3 24.3 72 -8.6 16.5
07:40 1017 30.03 846 24.98 -4.7 23.5 74 -8.7 16.3
07:45 1017 30.03 846 24.98 -4.9 23.2 74 -8.8 16.2
07:50 1017 30.03 846 24.98 -4.5 23.9 73 -8.7 16.4
07:55 1017 30.03 846 24.98 -4.8 23.3 75 -8.7 16.4
08:00 1017 30.03 846 24.98 -4.9 23.2 73 -8.9 15.9
08:05 1017 30.03 846 24.98 -5.1 22.9 75 -8.8 16.2
08:10 1017 30.03 846 24.98 -5.4 22.2 76 -9 15.8
08:15 1017 30.03 846 24.98 -5.2 22.6 77 -8.7 16.3
08:20 1017 30.03 846 24.98 -5.2 22.7 75 -8.9 16
08:25 1017 30.03 846 24.98 -5.2 22.7 74 -9 15.7
08:30 1017 30.03 846 24.98 -5.5 22 77 -9 15.8
08:35 1017 30.03 846 24.98 -5.7 21.8 77 -9.1 15.7
08:40 1017 30.03 847 25.01 -5.8 21.5 78 -9 15.8
08:45 1017 30.03 847 25.01 -6 21.2 80 -9 15.9
08:50 1017 30.03 847 25.01 -5.6 21.9 79 -8.8 16.2
08:55 1017 30.03 847 25.01 -5.2 22.7 77 -8.7 16.4
09:00 1017 30.03 847 25.01 -5.1 22.8 77 -8.6 16.5
09:05 1017 30.03 846 24.98 -5.1 22.9 75 -8.9 16
09:10 1017 30.03 846 24.98 -5.5 22.1 78 -8.8 16.2
09:15 1017 30.03 847 25.01 -5.2 22.6 75 -8.9 16
09:20 1017 30.03 847 25.01 -5.3 22.4 76 -8.8 16.1
09:25 1017 30.03 847 25.01 -5.6 21.9 78 -8.9 15.9
09:30 1017 30.03 847 25.01 -5.8 21.6 80 -8.8 16.2
09:35 1018 30.06 847 25.01 -5.1 22.8 77 -8.6 16.5
09:40 1018 30.06 847 25.01 -4.5 23.9 75 -8.4 16.9
09:45 1018 30.06 847 25.01 -4.2 24.4 74 -8.2 17.3
09:50 1018 30.06 847 25.01 -4.1 24.7 74 -8 17.6
09:55 1018 30.06 847 25.01 -3.7 25.3 72 -8.1 17.4
10:00 1018 30.06 847 25.01 -3.6 25.5 72 -7.9 17.7
10:05 1018 30.06 847 25.01 -3.5 25.8 69 -8.4 16.9
10:10 1018 30.06 848 25.04 -3.4 25.9 71 -8 17.6
10:15 1019 30.09 848 25.04 -3.3 26 71 -7.9 17.7
10:20 1019 30.09 848 25.04 -3.4 25.9 67 -8.7 16.4
10:25 1019 30.09 848 25.04 -4.4 24.1 72 -8.8 16.2
10:30 1019 30.09 848 25.04 -4.7 23.6 73 -8.8 16.1
10:35 1019 30.09 848 25.04 -5.2 22.6 74 -9.2 15.5
10:40 1019 30.09 848 25.04 -5.5 22.2 75 -9.2 15.4
10:45 1019 30.09 848 25.04 -6.2 20.9 76 -9.7 14.6
10:50 1019 30.09 848 25.04 -6.2 20.9 76 -9.8 14.4
10:55 1018 30.06 848 25.04 -5.9 21.5 73 -10 14
11:00 1018 30.06 848 25.04 -5.9 21.3 73 -10 14
11:05 1018 30.06 848 25.04 -6.3 20.6 74 -10.2 13.6
11:10 1019 30.09 848 25.04 -6 21.3 72 -10.2 13.7
11:15 1019 30.09 848 25.04 -5.7 21.7 72 -9.9 14.1
11:20 1019 30.09 848 25.04 -5.2 22.6 71 -9.7 14.5
11:25 1019 30.09 849 25.07 -4.9 23.2 68 -9.9 14.2
11:30 1019 30.09 849 25.07 -4.6 23.8 66 -9.9 14.1
11:35 1019 30.09 849 25.07 -4.6 23.8 65 -10.1 13.7
11:40 1020 30.12 849 25.07 -4.7 23.5 66 -10.2 13.7
11:45 1020 30.12 849 25.07 -5.2 22.6 67 -10.4 13.3
11:50 1020 30.12 849 25.07 -5.7 21.7 70 -10.4 13.3
11:55 1020 30.12 849 25.07 -5.8 21.6 69 -10.7 12.8
12:00 1019 30.09 849 25.07 -5.9 21.3 69 -10.8 12.5
12:05 1019 30.09 849 25.07 -5.7 21.8 68 -10.7 12.7
12:10 1019 30.09 848 25.04 -6.1 21 69 -10.9 12.5
12:15 1019 30.09 848 25.04 -6.1 21.1 68 -11.1 12
12:20 1019 30.09 848 25.04 -5.7 21.7 65 -11.4 11.5
12:25 1019 30.09 848 25.04 -6.2 20.8 68 -11.2 11.8
12:30 1019 30.09 848 25.04 -6 21.2 67 -11.1 12
12:35 1019 30.09 848 25.04 -5.9 21.3 67 -11.1 12
12:40 1019 30.09 848 25.04 -5.9 21.4 66 -11.3 11.7
12:45 1019 30.09 848 25.04 -5.6 21.9 66 -11.1 12.1
12:50 1019 30.09 848 25.04 -5.5 22.1 63 -11.4 11.5
12:55 1018 30.06 848 25.04 -5.4 22.3 66 -10.8 12.5
13:00 1018 30.06 848 25.04 -5.2 22.7 63 -11.2 11.9
13:05 1018 30.06 847 25.01 -5.2 22.6 65 -10.9 12.4
13:10 1018 30.06 847 25.01 -5 23 63 -11.1 12.1
13:15 1018 30.06 847 25.01 -4.6 23.6 62 -10.9 12.4
13:20 1018 30.06 847 25.01 -4.4 24 62 -10.6 12.9
13:25 1018 30.06 847 25.01 -4.5 23.9 63 -10.6 13
13:30 1018 30.06 847 25.01 -4.3 24.2 62 -10.5 13
13:35 1018 30.06 847 25.01 -4.3 24.3 61 -10.7 12.7
13:40 1017 30.03 847 25.01 -4.6 23.7 63 -10.7 12.7
13:45 1017 30.03 846 24.98 -4.8 23.3 64 -10.6 12.8
13:50 1017 30.03 846 24.98 -4.7 23.6 63 -10.7 12.8
13:55 1017 30.03 846 24.98 -4.9 23.2 65 -10.5 13.1
14:00 1017 30.03 846 24.98 -4.8 23.4 65 -10.3 13.4
14:05 1017 30.03 846 24.98 -4.9 23.1 65 -10.6 13
14:10 1017 30.03 846 24.98 -5.3 22.5 65 -10.8 12.6
14:15 1016 30 846 24.98 -5.1 22.8 66 -10.5 13
14:20 1016 30 846 24.98 -5.1 22.8 66 -10.5 13.1
14:25 1016 30 845 24.95 -5.1 22.9 66 -10.5 13.1
14:30 1016 30 845 24.95 -5.2 22.6 68 -10.3 13.5
14:35 1016 30 845 24.95 -5.1 22.9 67 -10.3 13.4
14:40 1016 30 845 24.95 -4.6 23.8 64 -10.3 13.4
14:45 1016 30 845 24.95 -4.2 24.4 65 -9.9 14.1
14:50 1016 30 845 24.95 -4.1 24.5 65 -9.7 14.5
14:55 1016 30 845 24.95 -4.7 23.6 67 -9.9 14.2
15:00 1015 29.97 845 24.95 -4.8 23.3 67 -10.1 13.9
15:05 1016 30 845 24.95 -4.5 23.9 66 -9.8 14.3
15:10 1015 29.97 845 24.95 -4.2 24.5 65 -9.7 14.5
15:15 1015 29.97 845 24.95 -3.9 24.9 64 -9.8 14.3
15:20 1015 29.97 845 24.95 -3.8 25.1 64 -9.6 14.7
15:25 1016 30 845 24.95 -4 24.9 64 -9.8 14.4
15:30 1015 29.97 845 24.95 -4.2 24.5 66 -9.7 14.6
15:35 1016 30 845 24.95 -4.4 24 67 -9.7 14.5
15:40 1015 29.97 845 24.95 -4.4 24 66 -9.9 14.1
15:45 1015 29.97 845 24.95 -4.4 24.1 66 -9.8 14.3
15:50 1015 29.97 845 24.95 -4.7 23.5 68 -9.8 14.4
15:55 1015 29.97 845 24.95 -5.7 21.8 71 -10.1 13.8
16:00 1015 29.97 845 24.95 -5.9 21.3 71 -10.4 13.4
16:05 1015 29.97 844 24.92 -6.5 20.2 73 -10.6 12.9
16:10 1015 29.97 844 24.92 -6.6 20.1 73 -10.6 12.9
16:15 1015 29.97 844 24.92 -6.5 20.3 74 -10.4 13.2
16:20 1015 29.97 844 24.92 -6.2 20.8 72 -10.4 13.2
16:25 1015 29.97 844 24.92 -6 21.1 72 -10.4 13.4
16:30 1015 29.97 844 24.92 -5.9 21.5 72 -10.1 13.8
16:35 1015 29.97 844 24.92 -5.7 21.8 70 -10.2 13.6
16:40 1015 29.97 844 24.92 -5.5 22.2 70 -10.2 13.7
16:45 1015 29.97 844 24.92 -5.3 22.5 70 -9.9 14.2
16:50 1014 29.94 844 24.92 -5.3 22.4 70 -9.9 14.1
16:55 1014 29.94 844 24.92 -5.5 22.1 71 -9.9 14.2
17:00 1014 29.94 843 24.89 -5.4 22.4 71 -9.8 14.4
17:05 1014 29.94 843 24.89 -5.1 22.7 71 -9.7 14.5
17:10 1014 29.94 843 24.89 -5.2 22.7 72 -9.5 14.8
17:15 1014 29.94 843 24.89 -5 23 72 -9.3 15.3
17:20 1014 29.94 843 24.89 -4.7 23.6 71 -9.1 15.6
17:25 1014 29.94 843 24.89 -4.5 23.8 71 -9 15.8
17:30 1014 29.94 843 24.89 -4.5 23.9 71 -9 15.9
17:35 1014 29.94 843 24.89 -4.4 24 70 -9 15.7
17:40 1014 29.94 843 24.89 -4.7 23.6 72 -9 15.8
17:45 1013 29.91 843 24.89 -4.8 23.4 73 -9 15.8
17:50 1013 29.91 842 24.86 -4.8 23.3 73 -9 15.8
17:55 1013 29.91 842 24.86 -4.9 23.2 73 -9 15.8
18:00 1013 29.91 842 24.86 -4.7 23.6 73 -8.8 16.1
18:05 1013 29.91 842 24.86 -4.4 24.1 72 -8.7 16.3
18:10 1013 29.91 842 24.86 -4.3 24.3 73 -8.4 16.9
18:15 1013 29.91 842 24.86 -4.2 24.4 72 -8.5 16.7
18:20 1013 29.91 842 24.86 -3.8 25.2 70 -8.5 16.8
18:25 1012 29.88 842 24.86 -3.8 25.2 72 -8.2 17.2
18:30 1012 29.88 841 24.83 -2.9 26.7 68 -8.1 17.5
18:35 1012 29.88 841 24.83 -3 26.7 69 -7.9 17.8
18:40 1012 29.88 841 24.83 -2.8 26.9 68 -7.9 17.8
18:45 1012 29.88 841 24.83 -2.1 28.3 65 -7.8 17.9
18:50 1012 29.88 841 24.83 -1.6 29.1 66 -7.2 19.1
18:55 1011 29.85 841 24.83 -1.2 29.8 62 -7.5 18.4
19:00 1011 29.85 840 24.81 -1.7 28.9 68 -6.9 19.6
19:05 1011 29.85 840 24.81 -0.5 31.1 63 -6.7 20
19:10 1011 29.85 840 24.81 0.5 32.9 62 -6 21.2
19:15 1011 29.85 840 24.81 0.6 33 64 -5.5 22.1
19:20 1011 29.85 840 24.81 1 33.9 63 -5.2 22.7
19:25 1011 29.85 840 24.81 1.2 34.1 65 -4.7 23.5
19:30 1011 29.85 840 24.81 1.9 35.4 63 -4.5 23.9
19:35 1011 29.85 840 24.81 2.2 36 62 -4.4 24.2
19:40 1011 29.85 840 24.81 1.8 35.2 61 -4.9 23.2
19:45 1011 29.85 840 24.81 0.8 33.5 66 -4.9 23.2
19:50 1010 29.83 840 24.81 -0.1 31.8 67 -5.5 22.2
19:55 1010 29.83 840 24.81 -1.3 29.7 71 -5.8 21.5
20:00 1010 29.83 839 24.78 -1.8 28.8 72 -6.2 20.9
20:05 1010 29.83 839 24.78 -2.7 27.2 74 -6.6 20.1
20:10 1010 29.83 839 24.78 -3.6 25.6 77 -7 19.5
20:15 1010 29.83 839 24.78 -3.6 25.5 78 -7 19.4
20:20 1010 29.83 839 24.78 -4 24.9 78 -7.2 19.1
20:25 1010 29.83 839 24.78 -4.2 24.4 79 -7.4 18.7
20:30 1010 29.83 839 24.78 -4.6 23.7 83 -7 19.3
20:35 1010 29.83 839 24.78 -4.6 23.8 82 -7.3 18.9
20:40 1009 29.8 839 24.78 -4.6 23.7 81 -7.4 18.6
20:45 1009 29.8 839 24.78 -4.6 23.7 81 -7.4 18.7
20:50 1009 29.8 838 24.75 -4.6 23.7 81 -7.4 18.7
20:55 1009 29.8 838 24.75 -4.5 23.9 82 -7.1 19.1
21:00 1009 29.8 838 24.75 -4.3 24.3 80 -7.2 19
21:05 1009 29.8 838 24.75 -4.4 24.1 83 -6.9 19.6
21:10 1009 29.8 838 24.75 -4.4 24.2 85 -6.6 20.2
21:15 1008 29.77 837 24.72 -3.5 25.6 81 -6.4 20.5
21:20 1008 29.77 837 24.72 -3.8 25.1 79 -6.9 19.5
21:25 1008 29.77 837 24.72 -3.9 24.9 85 -6 21.1
21:30 1008 29.77 837 24.72 -3.3 26 85 -5.5 22
21:35 1008 29.77 837 24.72 -2.7 27.2 82 -5.3 22.5
21:40 1008 29.77 837 24.72 -2.1 28.1 81 -5 23
21:45 1008 29.77 837 24.72 -2.1 28.2 82 -4.7 23.5
21:50 1008 29.77 837 24.72 -1.8 28.7 80 -4.9 23.2
21:55 1008 29.77 837 24.72 -1.6 29.2 79 -4.7 23.6
22:00 1008 29.77 837 24.72 -1.4 29.5 79 -4.6 23.7
22:05 1008 29.77 837 24.72 -1 30.1 79 -4.3 24.3
22:10 1007 29.74 837 24.72 -0.8 30.6 77 -4.3 24.3
22:15 1007 29.74 837 24.72 -0.6 31 76 -4.3 24.3
22:20 1007 29.74 836 24.69 -0.5 31.2 77 -4.1 24.7
22:25 1007 29.74 836 24.69 -0.2 31.7 75 -4.1 24.6
22:30 1007 29.74 836 24.69 -0.1 31.8 75 -4.1 24.7
22:35 1007 29.74 836 24.69 -0 32 74 -4.2 24.5
22:40 1007 29.74 836 24.69 0 32.1 73 -4.3 24.3
22:45 1007 29.74 836 24.69 0.1 32.2 73 -4.2 24.4
22:50 1006 29.71 836 24.69 0.3 32.5 73 -4 24.7
22:55 1006 29.71 836 24.69 0.4 32.7 72 -4.1 24.6
23:00 1006 29.71 835 24.66 0.2 32.4 72 -4.2 24.4
23:05 1006 29.71 835 24.66 0.3 32.5 72 -4.2 24.5
23:10 1006 29.71 835 24.66 0.3 32.5 72 -4.2 24.4
23:15 1006 29.71 835 24.66 0.3 32.5 72 -4.2 24.4
23:20 1006 29.71 835 24.66 -0.1 31.8 74 -4.1 24.6
23:25 1006 29.71 835 24.66 -0.8 30.6 76 -4.5 23.9
23:30 1006 29.71 835 24.66 -0.8 30.6 77 -4.4 24.2
23:35 1006 29.71 835 24.66 -1 30.3 81 -3.8 25.2
23:40 1006 29.71 835 24.66 -1.2 29.8 83 -3.8 25.2
23:45 1006 29.71 835 24.66 -1.5 29.3 84 -3.9 25
23:50 1006 29.71 835 24.66 -1.7 29 85 -3.8 25.1
23:55 1006 29.71 835 24.66 -1.8 28.8 84 -4.2 24.4
24:00 1006 29.71 835 24.66 -2 28.3 85 -4.3 24.3